Time;durP1;ratioP1;P1;durP2;ratioP2;P2;SDS_P1;SDS_P2;PMS_P1;PMS_P2;Temp;Humidity;BMP_temperature;BMP_pressure;BME280_temperature;BME280_humidity;BME280_pressure;Samples;Min_cycle;Max_cycle;Signal;HPM_P1;HPM_P2
2023/04/26 00:00:45;;;;;;;12.52;2.88;;;;;;;;;;5085332;27;20043;-76
2023/04/26 00:03:14;;;;;;;14.98;3.30;;;;;;;;;;5070965;27;20077;-75
2023/04/26 00:05:41;;;;;;;9.95;2.42;;;;;;;;;;5086772;27;20146;-76
2023/04/26 00:08:08;;;;;;;16.40;3.28;;;;;;;;;;5088585;27;20063;-75
2023/04/26 00:10:34;;;;;;;8.48;2.85;;;;;;;;;;5090197;27;20082;-75
2023/04/26 00:13:00;;;;;;;10.73;2.58;;;;;;;;;;5063288;27;21969;-76
2023/04/26 00:15:26;;;;;;;17.30;3.30;;;;;;;;;;5077857;27;20043;-75
2023/04/26 00:17:52;;;;;;;11.18;3.10;;;;;;;;;;5076504;27;20044;-75
2023/04/26 00:20:18;;;;;;;25.33;3.10;;;;;;;;;;5079283;27;20047;-76
2023/04/26 00:22:45;;;;;;;14.30;2.85;;;;;;;;;;5074758;27;21135;-75
2023/04/26 00:25:12;;;;;;;11.48;2.85;;;;;;;;;;5087745;27;20078;-76
2023/04/26 00:27:38;;;;;;;10.38;2.53;;;;;;;;;;5067612;27;21126;-76
2023/04/26 00:30:05;;;;;;;7.97;2.50;;;;;;;;;;5088587;27;20044;-76
2023/04/26 00:32:31;;;;;;;9.15;2.30;;;;;;;;;;5087491;27;20039;-76
2023/04/26 00:34:57;;;;;;;9.00;2.65;;;;;;;;;;5087758;27;20073;-75
2023/04/26 00:37:23;;;;;;;10.38;2.47;;;;;;;;;;5072755;27;20062;-76
2023/04/26 00:39:49;;;;;;;12.75;2.90;;;;;;;;;;5088583;27;20098;-76
2023/04/26 00:42:15;;;;;;;6.05;2.60;;;;;;;;;;5062196;27;20052;-76
2023/04/26 00:44:42;;;;;;;10.95;2.78;;;;;;;;;;5079655;27;20138;-76
2023/04/26 00:47:08;;;;;;;14.98;2.42;;;;;;;;;;5077368;27;20040;-76
2023/04/26 00:49:34;;;;;;;6.10;2.72;;;;;;;;;;5080703;27;20075;-75
2023/04/26 00:52:00;;;;;;;7.97;3.13;;;;;;;;;;5074838;27;20035;-76
2023/04/26 00:54:26;;;;;;;11.57;2.78;;;;;;;;;;5078959;27;20051;-76
2023/04/26 00:56:53;;;;;;;10.15;2.72;;;;;;;;;;5089129;27;20102;-76
2023/04/26 00:59:20;;;;;;;12.27;3.05;;;;;;;;;;5089125;27;20502;-76
2023/04/26 01:01:47;;;;;;;15.73;3.20;;;;;;;;;;5068992;27;21062;-76
2023/04/26 01:04:14;;;;;;;11.77;2.75;;;;;;;;;;5091136;27;20066;-76
2023/04/26 01:06:40;;;;;;;11.65;2.78;;;;;;;;;;5089589;27;20039;-76
2023/04/26 01:09:08;;;;;;;8.88;3.10;;;;;;;;;;5084183;27;20089;-75
2023/04/26 01:11:34;;;;;;;14.20;2.35;;;;;;;;;;5083538;27;20052;-76
2023/04/26 01:14:01;;;;;;;9.25;2.47;;;;;;;;;;5082610;27;20188;-75
2023/04/26 01:16:27;;;;;;;9.73;2.45;;;;;;;;;;5080517;27;20040;-76
2023/04/26 01:18:53;;;;;;;7.25;2.80;;;;;;;;;;5083874;27;20047;-76
2023/04/26 01:21:23;;;;;;;14.50;2.45;;;;;;;;;;5058617;27;20132;-76
2023/04/26 01:23:52;;;;;;;15.63;2.65;;;;;;;;;;5076444;27;20079;-76
2023/04/26 01:26:19;;;;;;;13.07;2.30;;;;;;;;;;5089821;27;20045;-75
2023/04/26 01:28:45;;;;;;;11.52;2.22;;;;;;;;;;5063838;27;20821;-76
2023/04/26 01:31:12;;;;;;;11.98;2.60;;;;;;;;;;5088381;27;20406;-78
2023/04/26 01:33:38;;;;;;;12.27;2.50;;;;;;;;;;5087746;27;20040;-78
2023/04/26 01:36:08;;;;;;;8.90;2.55;;;;;;;;;;5087870;27;22528;-78
2023/04/26 01:38:34;;;;;;;6.30;2.83;;;;;;;;;;5082299;27;20031;-78
2023/04/26 01:41:01;;;;;;;10.27;2.50;;;;;;;;;;5092870;27;20055;-78
2023/04/26 01:43:27;;;;;;;6.10;2.22;;;;;;;;;;5080080;27;20097;-78
2023/04/26 01:45:53;;;;;;;12.30;2.55;;;;;;;;;;5079370;27;20132;-76
2023/04/26 01:48:19;;;;;;;9.23;2.45;;;;;;;;;;5070543;27;20043;-76
2023/04/26 01:50:45;;;;;;;9.73;2.55;;;;;;;;;;5071630;27;20035;-76
2023/04/26 01:53:11;;;;;;;8.27;2.30;;;;;;;;;;5074267;27;20166;-76
2023/04/26 01:55:37;;;;;;;6.72;2.40;;;;;;;;;;5081997;27;20051;-76
2023/04/26 01:58:03;;;;;;;11.85;2.70;;;;;;;;;;5083845;27;20040;-77
2023/04/26 02:00:30;;;;;;;14.85;2.22;;;;;;;;;;5083043;28;20031;-76
2023/04/26 02:02:56;;;;;;;9.45;2.03;;;;;;;;;;5082627;27;20571;-76
2023/04/26 02:05:23;;;;;;;10.77;2.20;;;;;;;;;;5084665;27;20064;-76
2023/04/26 02:07:50;;;;;;;4.63;2.13;;;;;;;;;;5081197;28;20415;-76
2023/04/26 02:10:16;;;;;;;5.65;2.00;;;;;;;;;;5082178;27;20047;-76
2023/04/26 02:12:42;;;;;;;7.85;2.90;;;;;;;;;;5078346;27;20047;-76
2023/04/26 02:15:08;;;;;;;9.75;2.10;;;;;;;;;;5075066;27;20036;-76
2023/04/26 02:17:36;;;;;;;8.98;2.70;;;;;;;;;;5075466;27;20054;-76
2023/04/26 02:20:02;;;;;;;9.90;2.78;;;;;;;;;;5069611;27;21228;-76
2023/04/26 02:22:30;;;;;;;7.60;2.50;;;;;;;;;;5083102;27;20058;-76
2023/04/26 02:24:56;;;;;;;8.02;1.92;;;;;;;;;;5071268;27;20861;-76
2023/04/26 02:27:22;;;;;;;5.97;2.30;;;;;;;;;;5061032;27;20112;-76
2023/04/26 02:29:48;;;;;;;8.32;2.13;;;;;;;;;;5079502;27;20038;-76
2023/04/26 02:32:14;;;;;;;13.60;2.58;;;;;;;;;;5084880;27;20051;-76
2023/04/26 02:34:40;;;;;;;8.30;2.40;;;;;;;;;;5088303;27;20055;-76
2023/04/26 02:37:06;;;;;;;10.52;2.17;;;;;;;;;;5084373;27;20117;-76
2023/04/26 02:39:32;;;;;;;7.25;3.08;;;;;;;;;;5082210;27;20055;-76
2023/04/26 02:41:59;;;;;;;10.60;2.90;;;;;;;;;;5085313;27;20084;-76
2023/04/26 02:44:25;;;;;;;18.45;5.60;;;;;;;;;;5079753;27;20044;-77
2023/04/26 02:46:51;;;;;;;13.20;3.88;;;;;;;;;;5063145;27;20073;-77
2023/04/26 02:49:17;;;;;;;8.38;2.45;;;;;;;;;;5058559;27;20483;-76
2023/04/26 02:51:43;;;;;;;9.52;2.80;;;;;;;;;;5076288;27;20036;-76
2023/04/26 02:54:09;;;;;;;8.07;2.95;;;;;;;;;;5073889;27;20056;-76
2023/04/26 02:56:35;;;;;;;12.65;2.58;;;;;;;;;;5084397;27;20048;-77
2023/04/26 02:59:01;;;;;;;5.05;2.47;;;;;;;;;;5084466;27;20165;-76
2023/04/26 03:01:27;;;;;;;9.02;2.97;;;;;;;;;;5087425;27;20031;-77
2023/04/26 03:03:54;;;;;;;7.63;3.05;;;;;;;;;;5073882;27;20163;-77
2023/04/26 03:06:20;;;;;;;7.90;2.75;;;;;;;;;;5079045;27;20435;-76
2023/04/26 03:08:46;;;;;;;7.53;2.85;;;;;;;;;;5075730;27;20135;-77
2023/04/26 03:11:12;;;;;;;7.97;2.90;;;;;;;;;;5071566;27;20698;-77
2023/04/26 03:13:38;;;;;;;10.80;2.78;;;;;;;;;;5078852;27;20096;-77
2023/04/26 03:16:05;;;;;;;11.57;3.08;;;;;;;;;;5083554;27;20044;-77
2023/04/26 03:18:31;;;;;;;9.73;2.67;;;;;;;;;;5083168;27;20036;-77
2023/04/26 03:20:57;;;;;;;12.73;2.97;;;;;;;;;;5084873;27;20044;-77
2023/04/26 03:23:24;;;;;;;7.85;2.42;;;;;;;;;;5077844;27;20047;-77
2023/04/26 03:25:50;;;;;;;7.40;2.60;;;;;;;;;;5076963;27;20098;-77
2023/04/26 03:28:16;;;;;;;8.32;2.90;;;;;;;;;;5067744;27;20055;-77
2023/04/26 03:30:43;;;;;;;10.65;2.65;;;;;;;;;;5086893;27;20047;-77
2023/04/26 03:33:09;;;;;;;9.90;2.78;;;;;;;;;;5079638;27;20054;-77
2023/04/26 03:35:35;;;;;;;8.25;2.40;;;;;;;;;;5087190;27;20039;-77
2023/04/26 03:38:01;;;;;;;10.57;2.65;;;;;;;;;;5085962;27;20071;-77
2023/04/26 03:40:28;;;;;;;6.40;2.67;;;;;;;;;;5087101;27;20039;-76
2023/04/26 03:42:54;;;;;;;8.40;2.40;;;;;;;;;;5074041;27;20700;-77
2023/04/26 03:45:20;;;;;;;11.77;2.67;;;;;;;;;;5072532;27;20076;-77
2023/04/26 03:47:46;;;;;;;7.43;2.40;;;;;;;;;;5077184;27;20043;-77
2023/04/26 03:50:12;;;;;;;10.85;2.60;;;;;;;;;;5073335;27;20043;-77
2023/04/26 03:52:38;;;;;;;12.20;2.25;;;;;;;;;;5054939;27;20038;-77
2023/04/26 03:55:05;;;;;;;12.50;2.50;;;;;;;;;;5073371;27;20059;-77
2023/04/26 03:57:31;;;;;;;5.32;1.92;;;;;;;;;;5072430;27;20039;-76
2023/04/26 03:59:57;;;;;;;7.28;2.65;;;;;;;;;;5070131;27;20174;-78
2023/04/26 04:02:23;;;;;;;5.22;1.92;;;;;;;;;;5069134;27;20771;-77
2023/04/26 04:04:49;;;;;;;8.85;2.40;;;;;;;;;;5069961;27;20054;-77
2023/04/26 04:07:16;;;;;;;6.68;2.28;;;;;;;;;;5083910;27;20043;-77
2023/04/26 04:09:42;;;;;;;4.00;2.05;;;;;;;;;;5085100;27;20454;-77
2023/04/26 04:12:08;;;;;;;6.22;2.17;;;;;;;;;;5085565;27;20071;-77
2023/04/26 04:14:34;;;;;;;15.93;2.58;;;;;;;;;;5061919;27;20526;-77
2023/04/26 04:17:00;;;;;;;6.38;2.40;;;;;;;;;;5090175;27;20072;-77
2023/04/26 04:19:26;;;;;;;9.02;2.10;;;;;;;;;;5088748;27;20039;-77
2023/04/26 04:21:52;;;;;;;5.95;2.00;;;;;;;;;;5066667;27;20085;-76
2023/04/26 04:24:19;;;;;;;11.38;2.88;;;;;;;;;;5089017;27;20048;-76
2023/04/26 04:26:45;;;;;;;7.25;2.20;;;;;;;;;;5071285;27;20044;-76
2023/04/26 04:29:11;;;;;;;10.27;3.50;;;;;;;;;;5087199;27;20043;-76
2023/04/26 04:31:38;;;;;;;5.97;2.40;;;;;;;;;;5082104;27;20150;-76
2023/04/26 04:34:05;;;;;;;7.90;2.58;;;;;;;;;;5080953;27;20057;-78
2023/04/26 04:36:31;;;;;;;5.35;2.20;;;;;;;;;;5085397;27;20047;-76
2023/04/26 04:38:57;;;;;;;7.55;3.63;;;;;;;;;;5071865;27;20058;-76
2023/04/26 04:41:23;;;;;;;7.47;3.13;;;;;;;;;;5057662;27;20122;-77
2023/04/26 04:43:49;;;;;;;6.45;2.80;;;;;;;;;;5055417;27;20083;-76
2023/04/26 04:46:15;;;;;;;7.63;2.35;;;;;;;;;;5073808;27;20062;-76
2023/04/26 04:48:43;;;;;;;6.32;2.67;;;;;;;;;;5072501;27;20040;-76
2023/04/26 04:51:09;;;;;;;5.95;2.50;;;;;;;;;;5076433;27;20059;-77
2023/04/26 04:53:35;;;;;;;9.40;2.70;;;;;;;;;;5064351;27;20074;-76
2023/04/26 04:56:01;;;;;;;6.45;2.40;;;;;;;;;;5082343;27;20043;-76
2023/04/26 04:58:27;;;;;;;13.60;2.47;;;;;;;;;;5069210;27;21961;-76
2023/04/26 05:00:54;;;;;;;6.25;2.50;;;;;;;;;;5077179;27;20070;-76
2023/04/26 05:03:21;;;;;;;3.35;2.15;;;;;;;;;;5077122;27;20082;-76
2023/04/26 05:05:47;;;;;;;6.78;2.45;;;;;;;;;;5080631;27;20071;-76
2023/04/26 05:08:13;;;;;;;6.38;2.63;;;;;;;;;;5079996;27;20047;-76
2023/04/26 05:10:39;;;;;;;14.52;2.70;;;;;;;;;;5077549;27;20043;-76
2023/04/26 05:13:05;;;;;;;8.68;2.78;;;;;;;;;;5079286;27;20641;-76
2023/04/26 05:15:32;;;;;;;7.85;2.80;;;;;;;;;;5070680;27;20383;-76
2023/04/26 05:17:58;;;;;;;8.50;2.58;;;;;;;;;;5074908;27;20050;-76
2023/04/26 05:20:24;;;;;;;6.78;2.80;;;;;;;;;;5065526;27;20129;-77
2023/04/26 05:22:50;;;;;;;10.50;3.10;;;;;;;;;;5072508;27;20122;-76
2023/04/26 05:25:17;;;;;;;6.75;3.33;;;;;;;;;;5060406;28;20050;-76
2023/04/26 05:27:44;;;;;;;9.15;3.13;;;;;;;;;;5089489;27;20541;-76
2023/04/26 05:30:11;;;;;;;6.97;2.90;;;;;;;;;;5087794;27;20047;-77
2023/04/26 05:32:37;;;;;;;11.57;2.53;;;;;;;;;;5075774;27;20043;-77
2023/04/26 05:35:04;;;;;;;8.52;2.65;;;;;;;;;;5064125;27;20174;-77
2023/04/26 05:37:30;;;;;;;7.50;3.15;;;;;;;;;;5086196;27;20106;-77
2023/04/26 05:39:56;;;;;;;11.32;2.75;;;;;;;;;;5084979;27;20055;-77
2023/04/26 05:42:22;;;;;;;8.05;2.47;;;;;;;;;;5061886;27;20039;-77
2023/04/26 05:44:48;;;;;;;4.72;2.58;;;;;;;;;;5087735;27;20068;-77
2023/04/26 05:47:14;;;;;;;6.50;2.50;;;;;;;;;;5085169;27;20075;-77
2023/04/26 05:49:41;;;;;;;7.72;3.75;;;;;;;;;;5082076;27;20058;-76
2023/04/26 05:52:07;;;;;;;7.32;2.90;;;;;;;;;;5084143;27;20040;-76
2023/04/26 05:54:33;;;;;;;13.95;3.50;;;;;;;;;;5062542;27;20491;-78
2023/04/26 05:56:59;;;;;;;8.13;2.65;;;;;;;;;;5093105;27;20074;-77
2023/04/26 05:59:25;;;;;;;7.05;2.65;;;;;;;;;;5075009;28;22226;-77
2023/04/26 06:01:51;;;;;;;10.98;3.72;;;;;;;;;;5081447;28;20161;-77
2023/04/26 06:04:17;;;;;;;9.55;2.50;;;;;;;;;;5085182;27;20048;-77
2023/04/26 06:06:43;;;;;;;8.32;2.45;;;;;;;;;;5085633;27;20044;-78
2023/04/26 06:09:09;;;;;;;6.82;2.85;;;;;;;;;;5082924;27;20075;-77
2023/04/26 06:11:35;;;;;;;7.70;2.53;;;;;;;;;;5061617;28;21907;-77
2023/04/26 06:14:01;;;;;;;7.90;2.38;;;;;;;;;;5060875;28;20039;-77
2023/04/26 06:16:27;;;;;;;4.63;2.30;;;;;;;;;;5086332;28;20040;-77
2023/04/26 06:18:54;;;;;;;3.88;2.10;;;;;;;;;;5066704;28;20059;-77
2023/04/26 06:21:20;;;;;;;10.77;2.40;;;;;;;;;;5083903;27;20040;-77
2023/04/26 06:23:46;;;;;;;4.38;2.25;;;;;;;;;;5083246;27;20039;-78
2023/04/26 06:26:12;;;;;;;6.88;1.80;;;;;;;;;;5073216;28;20048;-76
2023/04/26 06:28:38;;;;;;;8.00;2.42;;;;;;;;;;5090968;27;20089;-77
2023/04/26 06:31:04;;;;;;;9.73;2.10;;;;;;;;;;5086813;27;20052;-76
2023/04/26 06:33:30;;;;;;;7.38;2.65;;;;;;;;;;5076640;27;20070;-76
2023/04/26 06:35:56;;;;;;;8.30;2.72;;;;;;;;;;5087705;27;20099;-76
2023/04/26 06:38:23;;;;;;;3.83;2.50;;;;;;;;;;5083143;28;20897;-76
2023/04/26 06:40:49;;;;;;;7.72;3.15;;;;;;;;;;5084331;27;20043;-78
2023/04/26 06:43:15;;;;;;;8.23;2.83;;;;;;;;;;5082484;27;20039;-77
2023/04/26 06:45:41;;;;;;;7.15;2.72;;;;;;;;;;5084740;27;20090;-77
2023/04/26 06:48:07;;;;;;;7.03;2.35;;;;;;;;;;5081156;27;20775;-77
2023/04/26 06:50:33;;;;;;;8.73;2.90;;;;;;;;;;5084600;27;20052;-76
2023/04/26 06:52:59;;;;;;;9.45;3.00;;;;;;;;;;5060393;28;20039;-77
2023/04/26 06:55:25;;;;;;;8.98;2.65;;;;;;;;;;5082433;27;20052;-76
2023/04/26 06:57:52;;;;;;;5.80;2.20;;;;;;;;;;5084591;27;20043;-77
2023/04/26 07:00:18;;;;;;;10.40;2.63;;;;;;;;;;5086014;27;20057;-76
2023/04/26 07:02:44;;;;;;;9.38;3.47;;;;;;;;;;5087238;28;20097;-76
2023/04/26 07:05:10;;;;;;;9.23;2.78;;;;;;;;;;5089365;27;20067;-77
2023/04/26 07:07:36;;;;;;;7.50;2.40;;;;;;;;;;5079291;27;20556;-76
2023/04/26 07:10:03;;;;;;;11.30;2.50;;;;;;;;;;5080120;27;20054;-77
2023/04/26 07:12:29;;;;;;;6.63;2.40;;;;;;;;;;5084804;27;20372;-76
2023/04/26 07:14:55;;;;;;;7.47;1.77;;;;;;;;;;5091133;27;20052;-76
2023/04/26 07:17:22;;;;;;;9.23;2.25;;;;;;;;;;5083396;27;20099;-75
2023/04/26 07:19:48;;;;;;;8.27;2.22;;;;;;;;;;5066995;27;20104;-76
2023/04/26 07:22:14;;;;;;;12.57;2.35;;;;;;;;;;5089210;27;20787;-76
2023/04/26 07:24:40;;;;;;;9.07;3.03;;;;;;;;;;5069386;27;20171;-77
2023/04/26 07:27:06;;;;;;;11.32;2.97;;;;;;;;;;5085624;27;20486;-76
2023/04/26 07:29:32;;;;;;;8.88;2.55;;;;;;;;;;5090220;27;20077;-75
2023/04/26 07:31:58;;;;;;;12.32;2.60;;;;;;;;;;5088822;27;20092;-75
2023/04/26 07:34:25;;;;;;;7.95;2.35;;;;;;;;;;5089453;27;20047;-76
2023/04/26 07:36:51;;;;;;;7.35;2.13;;;;;;;;;;5091847;27;20403;-77
2023/04/26 07:39:17;;;;;;;12.82;2.55;;;;;;;;;;5091141;27;20048;-83
2023/04/26 07:41:47;;;;;;;10.05;2.72;;;;;;;;;;5092844;27;21070;-77
2023/04/26 07:44:13;;;;;;;8.25;2.47;;;;;;;;;;5086786;27;20051;-78
2023/04/26 07:46:39;;;;;;;5.57;1.70;;;;;;;;;;5090110;27;20051;-78
2023/04/26 07:49:05;;;;;;;12.10;2.03;;;;;;;;;;5070747;27;20050;-76
2023/04/26 07:51:31;;;;;;;8.35;1.33;;;;;;;;;;5093291;27;20138;-79
2023/04/26 07:53:57;;;;;;;4.90;1.10;;;;;;;;;;5090353;27;20054;-78
2023/04/26 07:56:23;;;;;;;5.95;0.98;;;;;;;;;;5091371;27;20061;-78
2023/04/26 07:58:50;;;;;;;12.20;2.35;;;;;;;;;;5093219;27;20094;-77
2023/04/26 08:01:16;;;;;;;10.13;1.77;;;;;;;;;;5091106;27;20188;-78
2023/04/26 08:03:42;;;;;;;8.40;1.40;;;;;;;;;;5089590;27;20506;-75
2023/04/26 08:06:09;;;;;;;9.68;1.70;;;;;;;;;;5089704;27;20119;-79
2023/04/26 08:08:41;;;;;;;6.70;1.48;;;;;;;;;;5083820;27;20052;-75
2023/04/26 08:11:09;;;;;;;5.95;1.40;;;;;;;;;;5089540;27;20047;-78
2023/04/26 08:13:35;;;;;;;10.38;1.75;;;;;;;;;;5091375;27;20043;-76
2023/04/26 08:16:01;;;;;;;4.32;1.25;;;;;;;;;;5082111;27;20173;-71
2023/04/26 08:18:27;;;;;;;8.57;1.77;;;;;;;;;;5090977;27;20091;-78
2023/04/26 08:20:54;;;;;;;9.93;1.60;;;;;;;;;;5088562;27;20048;-74
2023/04/26 08:23:21;;;;;;;8.30;1.85;;;;;;;;;;5090519;27;21828;-78
2023/04/26 08:25:48;;;;;;;6.15;1.27;;;;;;;;;;5088605;27;20096;-74
2023/04/26 08:28:15;;;;;;;11.85;1.20;;;;;;;;;;5090039;27;20047;-77
2023/04/26 08:30:41;;;;;;;6.22;0.90;;;;;;;;;;5087980;27;20130;-78
2023/04/26 08:33:08;;;;;;;8.85;1.15;;;;;;;;;;5089266;27;20506;-77
2023/04/26 08:35:34;;;;;;;7.10;1.73;;;;;;;;;;5090817;27;20051;-76
2023/04/26 08:38:01;;;;;;;4.95;1.60;;;;;;;;;;5091983;27;20047;-76
2023/04/26 08:40:27;;;;;;;6.20;1.33;;;;;;;;;;5090208;27;20050;-77
2023/04/26 08:42:53;;;;;;;5.00;1.20;;;;;;;;;;5087199;27;20476;-74
2023/04/26 08:45:22;;;;;;;4.30;1.42;;;;;;;;;;5088350;27;20745;-73
2023/04/26 08:47:48;;;;;;;9.75;1.85;;;;;;;;;;5089611;27;20039;-73
2023/04/26 08:50:15;;;;;;;7.65;1.42;;;;;;;;;;5094978;27;20043;-74
2023/04/26 08:52:43;;;;;;;2.85;1.50;;;;;;;;;;5090436;27;20523;-73
2023/04/26 08:55:15;;;;;;;4.32;1.20;;;;;;;;;;5087018;27;20510;-74
2023/04/26 08:57:42;;;;;;;3.70;1.23;;;;;;;;;;5083399;27;20055;-74
2023/04/26 09:00:12;;;;;;;5.65;1.52;;;;;;;;;;5087975;27;20559;-73
2023/04/26 09:02:42;;;;;;;4.95;1.50;;;;;;;;;;5085986;27;21829;-74
2023/04/26 09:05:10;;;;;;;6.03;1.20;;;;;;;;;;5088481;27;21101;-74
2023/04/26 09:07:44;;;;;;;6.90;1.73;;;;;;;;;;5087225;27;20039;-74
2023/04/26 09:10:12;;;;;;;8.90;2.65;;;;;;;;;;5080333;27;20125;-75
2023/04/26 09:12:38;;;;;;;4.22;1.52;;;;;;;;;;5087155;27;20572;-74
2023/04/26 09:15:09;;;;;;;5.57;1.42;;;;;;;;;;5087519;27;20047;-75
2023/04/26 09:17:36;;;;;;;3.55;1.13;;;;;;;;;;5083946;27;20047;-74
2023/04/26 09:20:16;;;;;;;6.60;1.50;;;;;;;;;;5087050;27;20436;-74
2023/04/26 09:22:43;;;;;;;5.00;1.40;;;;;;;;;;5086284;27;20051;-74
2023/04/26 09:25:12;;;;;;;6.35;1.30;;;;;;;;;;5087829;27;20126;-73
2023/04/26 09:27:42;;;;;;;5.60;1.48;;;;;;;;;;5088208;27;20031;-74
2023/04/26 09:30:09;;;;;;;8.25;1.70;;;;;;;;;;5091886;27;20100;-73
2023/04/26 09:32:50;;;;;;;8.70;1.63;;;;;;;;;;5094014;27;20157;-73
2023/04/26 09:35:19;;;;;;;7.78;1.55;;;;;;;;;;5081509;27;20144;-73
2023/04/26 09:37:58;;;;;;;8.23;1.63;;;;;;;;;;5093748;27;20047;-73
2023/04/26 09:40:25;;;;;;;8.57;1.23;;;;;;;;;;5090088;27;20044;-74
2023/04/26 09:42:57;;;;;;;4.22;1.27;;;;;;;;;;5093924;27;20133;-73
2023/04/26 09:45:24;;;;;;;4.75;1.27;;;;;;;;;;5093467;27;20055;-73
2023/04/26 09:47:50;;;;;;;9.50;1.38;;;;;;;;;;5086058;27;20042;-74
2023/04/26 09:50:26;;;;;;;6.07;1.27;;;;;;;;;;5093074;27;20044;-72
2023/04/26 09:52:52;;;;;;;9.73;1.67;;;;;;;;;;5093686;27;20043;-72
2023/04/26 09:55:31;;;;;;;8.82;1.33;;;;;;;;;;5094262;27;20045;-72
2023/04/26 09:57:59;;;;;;;9.43;1.30;;;;;;;;;;5093755;27;20039;-72
2023/04/26 10:00:26;;;;;;;7.88;1.63;;;;;;;;;;5090946;28;20169;-72
2023/04/26 10:02:54;;;;;;;3.20;1.27;;;;;;;;;;5092888;27;20039;-72
2023/04/26 10:05:20;;;;;;;3.25;1.08;;;;;;;;;;5089763;28;20044;-71
2023/04/26 10:07:47;;;;;;;5.07;1.05;;;;;;;;;;5093857;28;20038;-78
2023/04/26 10:10:13;;;;;;;3.45;1.17;;;;;;;;;;5084771;28;20047;-77
2023/04/26 10:12:43;;;;;;;5.95;1.17;;;;;;;;;;5093506;27;20433;-77
2023/04/26 10:15:10;;;;;;;7.63;1.48;;;;;;;;;;5090286;27;20613;-78
2023/04/26 10:17:37;;;;;;;5.90;1.70;;;;;;;;;;5094036;28;20047;-77
2023/04/26 10:20:04;;;;;;;5.80;1.35;;;;;;;;;;5093927;28;20380;-77
2023/04/26 10:22:33;;;;;;;12.25;2.38;;;;;;;;;;5092933;27;20560;-77
2023/04/26 10:24:59;;;;;;;6.05;1.40;;;;;;;;;;5092445;28;20130;-77
2023/04/26 10:27:45;;;;;;;3.70;1.27;;;;;;;;;;5077695;28;20967;-77
2023/04/26 10:30:16;;;;;;;10.35;2.10;;;;;;;;;;5093151;28;20044;-77
2023/04/26 10:33:05;;;;;;;7.30;1.30;;;;;;;;;;5073117;28;20047;-78
2023/04/26 10:35:32;;;;;;;8.35;1.85;;;;;;;;;;5078502;28;20193;-78
2023/04/26 10:38:01;;;;;;;7.03;1.50;;;;;;;;;;5091631;28;20059;-78
2023/04/26 10:40:29;;;;;;;5.50;1.70;;;;;;;;;;5092821;28;20036;-77
2023/04/26 10:43:16;;;;;;;7.07;1.30;;;;;;;;;;5092182;28;20056;-78
2023/04/26 10:45:43;;;;;;;5.78;1.33;;;;;;;;;;5078046;28;20054;-77
2023/04/26 10:48:18;;;;;;;7.57;1.70;;;;;;;;;;5095630;27;20044;-78
2023/04/26 10:51:12;;;;;;;9.57;1.88;;;;;;;;;;5084702;27;20391;-78
2023/04/26 10:53:44;;;;;;;8.25;1.23;;;;;;;;;;5096235;27;20032;-78
2023/04/26 10:56:10;;;;;;;8.10;1.75;;;;;;;;;;5088223;27;20108;-78
2023/04/26 10:58:40;;;;;;;6.00;1.88;;;;;;;;;;5095557;27;20046;-78
2023/04/26 11:01:07;;;;;;;7.75;1.70;;;;;;;;;;5087321;27;20054;-78
2023/04/26 11:03:33;;;;;;;4.30;2.25;;;;;;;;;;5098277;27;20043;-78
2023/04/26 11:05:59;;;;;;;5.30;1.40;;;;;;;;;;5097017;27;20058;-78
2023/04/26 11:08:30;;;;;;;5.82;1.20;;;;;;;;;;5095276;27;20092;-78
2023/04/26 11:11:03;;;;;;;7.03;1.40;;;;;;;;;;5098799;27;20660;-78
2023/04/26 11:13:33;;;;;;;3.33;1.30;;;;;;;;;;5100257;27;20718;-78
2023/04/26 11:16:02;;;;;;;6.07;1.38;;;;;;;;;;5078382;27;20072;-79
2023/04/26 11:18:29;;;;;;;2.70;1.40;;;;;;;;;;5097637;27;20051;-79
2023/04/26 11:20:56;;;;;;;3.88;1.17;;;;;;;;;;5096775;27;20100;-78
2023/04/26 11:23:22;;;;;;;4.70;1.50;;;;;;;;;;5096543;27;20054;-78
2023/04/26 11:25:48;;;;;;;4.55;1.90;;;;;;;;;;5095706;27;20043;-78
2023/04/26 11:28:15;;;;;;;5.25;1.92;;;;;;;;;;5088619;27;22408;-78
2023/04/26 11:30:41;;;;;;;6.68;2.03;;;;;;;;;;5087538;27;20047;-78
2023/04/26 11:33:16;;;;;;;3.97;1.25;;;;;;;;;;5096178;27;20046;-78
2023/04/26 11:35:42;;;;;;;5.55;1.08;;;;;;;;;;5093052;27;20048;-79
2023/04/26 11:38:08;;;;;;;9.38;2.50;;;;;;;;;;5093000;27;21621;-80
2023/04/26 11:40:37;;;;;;;5.78;1.75;;;;;;;;;;5074215;27;20047;-80
2023/04/26 11:43:04;;;;;;;4.32;1.15;;;;;;;;;;5080078;27;20075;-81
2023/04/26 11:45:31;;;;;;;5.28;1.42;;;;;;;;;;5093711;27;20861;-79
2023/04/26 11:47:58;;;;;;;10.82;1.88;;;;;;;;;;5091252;27;20067;-79
2023/04/26 11:50:25;;;;;;;5.32;1.45;;;;;;;;;;5071434;27;20165;-80
2023/04/26 11:52:55;;;;;;;6.57;2.10;;;;;;;;;;5089371;27;20045;-80
2023/04/26 11:55:27;;;;;;;1.58;0.95;;;;;;;;;;5097387;27;20435;-81
2023/04/26 11:57:53;;;;;;;6.82;1.65;;;;;;;;;;5099095;27;20058;-81
2023/04/26 12:00:20;;;;;;;3.88;1.20;;;;;;;;;;5104122;27;20507;-81
2023/04/26 12:02:50;;;;;;;2.13;1.08;;;;;;;;;;5099860;27;20035;-81
2023/04/26 12:05:24;;;;;;;4.47;1.58;;;;;;;;;;5080446;27;20990;-81
2023/04/26 12:07:55;;;;;;;6.00;1.88;;;;;;;;;;5100098;27;20039;-81
2023/04/26 12:10:31;;;;;;;5.65;1.10;;;;;;;;;;5101368;27;20043;-82
2023/04/26 12:12:58;;;;;;;3.53;1.10;;;;;;;;;;5109797;27;21069;-82
2023/04/26 12:15:34;;;;;;;3.75;1.20;;;;;;;;;;5113704;27;20046;-83
2023/04/26 12:18:01;;;;;;;2.75;1.35;;;;;;;;;;5090330;27;20031;-70
2023/04/26 12:20:31;;;;;;;4.22;1.40;;;;;;;;;;5105331;27;20050;-80
2023/04/26 12:23:01;;;;;;;5.15;1.60;;;;;;;;;;5098423;27;20075;-81
2023/04/26 12:25:27;;;;;;;4.05;1.40;;;;;;;;;;5100171;27;20154;-82
2023/04/26 12:27:53;;;;;;;6.25;1.13;;;;;;;;;;5104775;27;20067;-82
2023/04/26 12:30:20;;;;;;;5.05;1.25;;;;;;;;;;5106126;27;20043;-81
2023/04/26 12:32:46;;;;;;;5.57;1.33;;;;;;;;;;5102266;27;20127;-81
2023/04/26 12:35:12;;;;;;;6.32;1.15;;;;;;;;;;5082930;27;20048;-81
2023/04/26 12:37:38;;;;;;;3.72;1.20;;;;;;;;;;5100424;27;20100;-82
2023/04/26 12:40:06;;;;;;;7.03;1.30;;;;;;;;;;5107060;27;20043;-80
2023/04/26 12:42:32;;;;;;;3.45;1.10;;;;;;;;;;5102576;27;20071;-80
2023/04/26 12:44:58;;;;;;;7.18;1.63;;;;;;;;;;5075215;27;20043;-79
2023/04/26 12:47:24;;;;;;;6.75;1.23;;;;;;;;;;5109047;27;20040;-79
2023/04/26 12:49:51;;;;;;;4.82;1.30;;;;;;;;;;5095214;27;20046;-83
2023/04/26 12:52:17;;;;;;;6.20;1.35;;;;;;;;;;5116284;27;20048;-81
2023/04/26 12:54:43;;;;;;;7.55;1.70;;;;;;;;;;5114202;27;20046;-81
2023/04/26 12:57:10;;;;;;;4.97;1.17;;;;;;;;;;5111919;27;20039;-80
2023/04/26 12:59:36;;;;;;;4.65;1.58;;;;;;;;;;5116604;27;20046;-81
2023/04/26 13:02:02;;;;;;;5.53;1.10;;;;;;;;;;5116835;27;20494;-81
2023/04/26 13:04:28;;;;;;;6.85;1.38;;;;;;;;;;5110460;27;20074;-81
2023/04/26 13:06:55;;;;;;;3.47;0.90;;;;;;;;;;5110300;27;20042;-81
2023/04/26 13:09:21;;;;;;;4.00;1.27;;;;;;;;;;5111827;27;20083;-81
2023/04/26 13:11:48;;;;;;;4.63;1.00;;;;;;;;;;5116436;27;20429;-81
2023/04/26 13:14:14;;;;;;;3.60;1.10;;;;;;;;;;5114692;27;20403;-81
2023/04/26 13:16:42;;;;;;;6.28;1.38;;;;;;;;;;5117820;27;20072;-81
2023/04/26 13:19:09;;;;;;;6.57;1.25;;;;;;;;;;5080365;28;20036;-81
2023/04/26 13:21:36;;;;;;;6.45;1.40;;;;;;;;;;5118592;27;20096;-81
2023/04/26 13:24:02;;;;;;;2.88;1.10;;;;;;;;;;5120817;27;20035;-81
2023/04/26 13:26:28;;;;;;;7.18;1.35;;;;;;;;;;5117278;27;20059;-81
2023/04/26 13:28:55;;;;;;;5.68;1.17;;;;;;;;;;5087464;27;20071;-82
2023/04/26 13:31:21;;;;;;;5.05;1.00;;;;;;;;;;5105566;27;20134;-82
2023/04/26 13:33:48;;;;;;;6.60;1.30;;;;;;;;;;5087236;27;20056;-82
2023/04/26 13:36:15;;;;;;;4.07;1.38;;;;;;;;;;5104251;27;20178;-82
2023/04/26 13:38:41;;;;;;;5.22;1.40;;;;;;;;;;5107710;27;20047;-82
2023/04/26 13:41:07;;;;;;;7.03;1.40;;;;;;;;;;5101446;27;20043;-83
2023/04/26 13:43:34;;;;;;;4.80;1.13;;;;;;;;;;5107046;27;20070;-82
2023/04/26 13:46:00;;;;;;;5.05;1.70;;;;;;;;;;5085748;28;20159;-82
2023/04/26 13:48:26;;;;;;;5.72;1.88;;;;;;;;;;5087102;28;20043;-82
2023/04/26 13:50:55;;;;;;;7.07;1.77;;;;;;;;;;5124698;27;20092;-82
2023/04/26 13:53:21;;;;;;;8.60;2.38;;;;;;;;;;5107887;27;20039;-82
2023/04/26 13:55:49;;;;;;;4.93;1.25;;;;;;;;;;5105432;27;20453;-82
2023/04/26 13:58:16;;;;;;;3.70;1.05;;;;;;;;;;5091654;27;20051;-83
2023/04/26 14:00:42;;;;;;;8.23;1.50;;;;;;;;;;5107487;27;20043;-82
2023/04/26 14:03:08;;;;;;;3.85;1.42;;;;;;;;;;5108690;27;20091;-82
2023/04/26 14:05:34;;;;;;;4.07;1.63;;;;;;;;;;5107764;27;20821;-82
2023/04/26 14:08:01;;;;;;;8.93;1.95;;;;;;;;;;5106222;27;21047;-84
2023/04/26 14:10:27;;;;;;;3.63;1.40;;;;;;;;;;5107450;27;20055;-82
2023/04/26 14:12:55;;;;;;;3.22;1.85;;;;;;;;;;5098951;28;20070;-82
2023/04/26 14:15:21;;;;;;;7.15;1.70;;;;;;;;;;5099359;28;20498;-81
2023/04/26 14:17:47;;;;;;;10.93;1.90;;;;;;;;;;5114641;27;20039;-82
2023/04/26 14:20:13;;;;;;;5.18;1.95;;;;;;;;;;5115076;27;21018;-82
2023/04/26 14:22:40;;;;;;;7.97;1.40;;;;;;;;;;5116205;27;20038;-83
2023/04/26 14:25:06;;;;;;;8.88;2.08;;;;;;;;;;5120203;27;20513;-82
2023/04/26 14:27:32;;;;;;;6.22;1.60;;;;;;;;;;5118199;27;20032;-82
2023/04/26 14:29:58;;;;;;;8.30;1.83;;;;;;;;;;5109834;27;20047;-82
2023/04/26 14:32:24;;;;;;;6.90;1.70;;;;;;;;;;5124328;27;20372;-82
2023/04/26 14:34:50;;;;;;;6.68;1.85;;;;;;;;;;5122975;27;20131;-82
2023/04/26 14:37:21;;;;;;;6.05;1.83;;;;;;;;;;5103623;27;20043;-81
2023/04/26 14:39:47;;;;;;;7.15;1.70;;;;;;;;;;5123585;27;20543;-82